Time;durP1;ratioP1;P1;durP2;ratioP2;P2;SDS_P1;SDS_P2;PMS_P1;PMS_P2;Temp;Humidity;BMP_temperature;BMP_pressure;BME280_temperature;BME280_humidity;BME280_pressure;Samples;Min_cycle;Max_cycle;Signal;HPM_P1;HPM_P2
2023/10/07 00:00:48;;;;;;;16.60;10.90;;;13.00;22.20;;;;;;4966896;28;20969;-63
2023/10/07 00:03:18;;;;;;;17.97;10.60;;;13.00;22.80;;;;;;4966644;28;20466;-63
2023/10/07 00:05:47;;;;;;;14.90;11.00;;;12.90;22.60;;;;;;4963421;28;21045;-63
2023/10/07 00:08:16;;;;;;;14.47;10.50;;;12.90;23.40;;;;;;4963776;28;21050;-63
2023/10/07 00:10:46;;;;;;;14.63;10.73;;;12.90;23.40;;;;;;4968735;28;20826;-63
2023/10/07 00:13:13;;;;;;;15.67;11.00;;;12.80;23.90;;;;;;4967266;28;20477;-63
2023/10/07 00:15:43;;;;;;;16.83;12.60;;;12.70;24.00;;;;;;4967029;28;21005;-63
2023/10/07 00:18:13;;;;;;;15.17;12.23;;;12.70;24.30;;;;;;4966711;28;20516;-63
2023/10/07 00:20:45;;;;;;;19.90;13.80;;;12.70;24.60;;;;;;4968225;28;21022;-63
2023/10/07 00:23:15;;;;;;;16.77;11.80;;;12.60;24.40;;;;;;4967436;28;20497;-63
2023/10/07 00:25:44;;;;;;;17.00;13.27;;;12.60;24.60;;;;;;4964463;28;20489;-63
2023/10/07 00:28:18;;;;;;;20.20;14.13;;;12.50;24.70;;;;;;4966853;28;20469;-63
2023/10/07 00:30:46;;;;;;;25.40;17.13;;;12.50;24.60;;;;;;4968726;28;20548;-63
2023/10/07 00:33:13;;;;;;;21.77;15.17;;;12.50;25.30;;;;;;4969934;28;20481;-63
2023/10/07 00:35:41;;;;;;;21.93;16.70;;;12.50;24.80;;;;;;4966765;28;20485;-63
2023/10/07 00:38:14;;;;;;;22.43;15.50;;;12.40;24.80;;;;;;4968230;28;20469;-64
2023/10/07 00:40:52;;;;;;;21.20;16.90;;;12.40;24.90;;;;;;4965629;28;20500;-63
2023/10/07 00:43:25;;;;;;;27.13;17.40;;;12.40;25.50;;;;;;4968146;28;20469;-63
2023/10/07 00:45:59;;;;;;;27.27;18.23;;;12.40;25.90;;;;;;4967838;28;20473;-63
2023/10/07 00:48:38;;;;;;;22.33;18.10;;;12.30;26.20;;;;;;4967280;28;20958;-63
2023/10/07 00:51:11;;;;;;;22.10;16.60;;;12.30;26.30;;;;;;4968503;28;20453;-63
2023/10/07 00:53:45;;;;;;;30.00;19.67;;;12.30;26.50;;;;;;4965430;28;20474;-63
2023/10/07 00:56:13;;;;;;;24.70;17.83;;;12.30;26.80;;;;;;4970191;28;20955;-63
2023/10/07 00:58:45;;;;;;;26.13;17.90;;;12.30;26.80;;;;;;4962680;28;20470;-63
2023/10/07 01:01:13;;;;;;;24.27;17.83;;;12.30;26.90;;;;;;4969321;28;20816;-63
2023/10/07 01:03:48;;;;;;;23.40;18.43;;;12.30;27.00;;;;;;4977247;28;20497;-63
2023/10/07 01:06:25;;;;;;;31.90;20.03;;;12.30;26.80;;;;;;4985406;28;20472;-63
2023/10/07 01:08:58;;;;;;;24.30;17.30;;;12.20;27.00;;;;;;4970510;28;20858;-62
2023/10/07 01:11:29;;;;;;;30.50;20.17;;;12.20;27.30;;;;;;4967755;28;20462;-63
2023/10/07 01:13:59;;;;;;;27.60;19.57;;;12.20;27.30;;;;;;4967630;28;20543;-62
2023/10/07 01:16:40;;;;;;;27.53;19.60;;;12.20;27.40;;;;;;4969922;28;20461;-63
2023/10/07 01:19:19;;;;;;;29.00;19.20;;;12.20;27.80;;;;;;4965906;28;20465;-62
2023/10/07 01:21:54;;;;;;;27.10;19.93;;;12.20;27.70;;;;;;4967030;28;20486;-62
2023/10/07 01:24:34;;;;;;;29.50;19.93;;;12.20;27.70;;;;;;4967156;28;20478;-63
2023/10/07 01:27:06;;;;;;;24.33;18.37;;;12.20;27.80;;;;;;4969170;28;20466;-63
2023/10/07 01:29:34;;;;;;;26.63;17.80;;;12.20;27.90;;;;;;4967977;28;20466;-63
2023/10/07 01:32:04;;;;;;;23.67;17.80;;;12.10;28.20;;;;;;4966106;28;20558;-63
2023/10/07 01:34:35;;;;;;;23.33;16.83;;;12.10;28.20;;;;;;4964437;28;20521;-63
2023/10/07 01:37:02;;;;;;;25.83;16.53;;;12.10;28.40;;;;;;4965959;28;20466;-63
2023/10/07 01:39:39;;;;;;;23.20;16.20;;;12.10;28.40;;;;;;4967713;28;20488;-62
2023/10/07 01:42:06;;;;;;;24.07;17.80;;;12.10;28.30;;;;;;4968459;28;20489;-62
2023/10/07 01:44:38;;;;;;;23.10;16.83;;;12.10;28.10;;;;;;4966149;28;20490;-62
2023/10/07 01:47:05;;;;;;;22.17;16.27;;;12.10;28.10;;;;;;4967258;28;20877;-63
2023/10/07 01:49:32;;;;;;;26.77;16.97;;;12.10;27.90;;;;;;4966053;28;20480;-63
2023/10/07 01:52:03;;;;;;;21.77;16.20;;;12.10;27.70;;;;;;4967845;28;21001;-63
2023/10/07 01:54:33;;;;;;;21.83;13.97;;;12.10;27.70;;;;;;4962862;28;20500;-62
2023/10/07 01:57:04;;;;;;;23.33;16.20;;;12.00;27.70;;;;;;4963479;28;20527;-62
2023/10/07 01:59:31;;;;;;;21.47;16.03;;;12.00;27.40;;;;;;4968335;28;20544;-62
2023/10/07 02:02:05;;;;;;;22.00;14.53;;;12.00;27.40;;;;;;4968229;28;20474;-62
2023/10/07 02:04:32;;;;;;;18.73;13.93;;;12.00;27.30;;;;;;4960619;28;20517;-62
2023/10/07 02:06:59;;;;;;;20.57;14.47;;;11.90;27.30;;;;;;4965830;28;20470;-62
2023/10/07 02:09:27;;;;;;;19.63;13.23;;;11.90;27.40;;;;;;4966436;28;20498;-62
2023/10/07 02:11:57;;;;;;;17.50;13.17;;;11.90;27.40;;;;;;4968073;28;20457;-62
2023/10/07 02:14:25;;;;;;;20.80;14.30;;;11.90;27.50;;;;;;4964358;28;20485;-63
2023/10/07 02:16:53;;;;;;;17.03;13.40;;;11.90;27.70;;;;;;4967365;28;20470;-63
2023/10/07 02:19:28;;;;;;;21.47;14.77;;;11.90;28.00;;;;;;4965299;28;20516;-62
2023/10/07 02:21:59;;;;;;;20.87;13.47;;;11.90;28.10;;;;;;4966651;28;20831;-62
2023/10/07 02:24:29;;;;;;;18.60;14.13;;;11.90;28.00;;;;;;4962332;28;21028;-62
2023/10/07 02:27:03;;;;;;;20.50;14.23;;;11.80;28.10;;;;;;4964794;28;20466;-62
2023/10/07 02:29:30;;;;;;;22.73;15.27;;;11.80;28.30;;;;;;4965180;28;20479;-62
2023/10/07 02:32:12;;;;;;;17.63;14.00;;;11.80;28.10;;;;;;4964919;28;20481;-62
2023/10/07 02:34:51;;;;;;;26.93;16.23;;;11.80;28.20;;;;;;4963240;28;20615;-62
2023/10/07 02:37:18;;;;;;;20.53;14.57;;;11.80;28.30;;;;;;4968347;28;20495;-62
2023/10/07 02:39:48;;;;;;;18.77;15.13;;;11.80;28.00;;;;;;4971579;28;20461;-62
2023/10/07 02:42:22;;;;;;;21.20;15.60;;;11.80;28.20;;;;;;4971907;28;20482;-62
2023/10/07 02:44:53;;;;;;;23.17;16.27;;;11.80;28.30;;;;;;4968652;28;20488;-62
2023/10/07 02:47:20;;;;;;;25.40;17.80;;;11.80;28.20;;;;;;4966934;28;20545;-62
2023/10/07 02:49:49;;;;;;;28.80;19.87;;;11.80;28.30;;;;;;4970414;28;20489;-62
2023/10/07 02:52:19;;;;;;;27.50;19.20;;;11.80;28.40;;;;;;4967982;28;20465;-62
2023/10/07 02:55:05;;;;;;;25.40;18.47;;;11.80;28.50;;;;;;4969300;28;20536;-62
2023/10/07 02:57:39;;;;;;;25.87;18.17;;;11.70;28.70;;;;;;4968967;28;20469;-61
2023/10/07 03:00:16;;;;;;;25.57;17.70;;;11.70;28.70;;;;;;4966161;28;20559;-62
2023/10/07 03:02:49;;;;;;;27.43;18.80;;;11.70;29.40;;;;;;4967938;28;20642;-62
2023/10/07 03:05:27;;;;;;;24.90;18.77;;;11.70;28.50;;;;;;4969053;28;20473;-62
2023/10/07 03:08:02;;;;;;;26.33;18.97;;;11.70;28.70;;;;;;4967164;28;20466;-61
2023/10/07 03:10:37;;;;;;;26.00;18.27;;;11.70;28.70;;;;;;4972060;28;20461;-62
2023/10/07 03:13:06;;;;;;;29.00;21.07;;;11.60;28.60;;;;;;4972739;28;20471;-62
2023/10/07 03:15:45;;;;;;;28.47;21.00;;;11.60;28.70;;;;;;4972321;28;21016;-61
2023/10/07 03:18:21;;;;;;;29.07;21.80;;;11.60;28.90;;;;;;4966068;28;20474;-62
2023/10/07 03:21:00;;;;;;;28.60;21.43;;;11.60;29.00;;;;;;4969404;28;20962;-62
2023/10/07 03:23:26;;;;;;;28.30;20.87;;;11.50;29.30;;;;;;4969899;28;20488;-62
2023/10/07 03:26:06;;;;;;;34.80;24.40;;;11.50;29.40;;;;;;4968709;28;20489;-62
2023/10/07 03:28:36;;;;;;;29.60;20.63;;;11.50;29.20;;;;;;4971278;28;20488;-62
2023/10/07 03:31:08;;;;;;;29.30;21.03;;;11.50;29.40;;;;;;4971021;28;20490;-62
2023/10/07 03:33:44;;;;;;;30.13;20.17;;;11.40;29.40;;;;;;4965335;28;20595;-62
2023/10/07 03:36:30;;;;;;;27.97;21.10;;;11.40;29.10;;;;;;4967629;28;20468;-62
2023/10/07 03:39:10;;;;;;;30.63;22.10;;;11.40;29.10;;;;;;4969904;28;20965;-62
2023/10/07 03:41:37;;;;;;;30.50;22.03;;;11.40;29.10;;;;;;4968494;28;20485;-62
2023/10/07 03:44:05;;;;;;;26.53;20.47;;;11.40;29.00;;;;;;4969454;28;20485;-62
2023/10/07 03:46:34;;;;;;;29.67;21.60;;;11.50;29.00;;;;;;4969084;28;20822;-62
2023/10/07 03:49:01;;;;;;;28.50;20.30;;;11.50;28.50;;;;;;4966958;28;20856;-62
2023/10/07 03:51:30;;;;;;;26.13;20.20;;;11.40;28.50;;;;;;4968207;28;21143;-62
2023/10/07 03:54:00;;;;;;;25.80;18.83;;;11.40;28.50;;;;;;4963956;28;21072;-62
2023/10/07 03:56:27;;;;;;;25.57;18.40;;;11.40;28.80;;;;;;4970243;28;20470;-62
2023/10/07 03:58:55;;;;;;;29.40;19.70;;;11.30;28.90;;;;;;4966191;28;20462;-62
2023/10/07 04:01:26;;;;;;;29.73;20.00;;;11.30;28.90;;;;;;4968725;28;20489;-62
2023/10/07 04:03:59;;;;;;;29.00;19.63;;;11.30;28.90;;;;;;4966478;28;20492;-62
2023/10/07 04:06:31;;;;;;;27.87;19.20;;;11.30;29.10;;;;;;4967956;28;20498;-62
2023/10/07 04:09:06;;;;;;;32.27;21.97;;;11.30;29.40;;;;;;4972272;28;20509;-62
2023/10/07 04:11:34;;;;;;;30.53;23.00;;;11.20;30.10;;;;;;4984370;28;21025;-62
2023/10/07 04:14:07;;;;;;;29.47;22.80;;;11.20;29.70;;;;;;4976657;28;20564;-62
2023/10/07 04:16:36;;;;;;;30.63;22.10;;;11.20;30.10;;;;;;4969072;28;20477;-62
2023/10/07 04:19:30;;;;;;;33.63;21.60;;;11.20;30.90;;;;;;4963029;28;20469;-61
2023/10/07 04:21:58;;;;;;;34.57;22.60;;;11.20;30.40;;;;;;4966667;28;20564;-61
2023/10/07 04:24:28;;;;;;;29.17;22.13;;;11.20;30.50;;;;;;4967204;28;20485;-62
2023/10/07 04:27:02;;;;;;;36.30;23.47;;;11.20;30.60;;;;;;4965600;28;20462;-62
2023/10/07 04:29:30;;;;;;;32.30;23.40;;;11.20;30.70;;;;;;4968131;28;20454;-61
2023/10/07 04:32:05;;;;;;;32.63;23.50;;;11.20;30.60;;;;;;4962930;28;20469;-61
2023/10/07 04:34:35;;;;;;;31.33;22.70;;;11.20;30.70;;;;;;4966447;28;20508;-62
2023/10/07 04:37:14;;;;;;;32.33;22.67;;;11.10;30.60;;;;;;4964823;28;20510;-62
2023/10/07 04:40:33;;;;;;;33.53;24.13;;;11.10;30.80;;;;;;4964016;28;20664;-62
2023/10/07 04:42:38;;;;;;;29.53;20.03;;;11.10;30.60;;;;;;4965115;28;20482;-62
2023/10/07 04:45:22;;;;;;;30.10;21.73;;;11.10;30.40;;;;;;4966164;28;20485;-62
2023/10/07 04:47:57;;;;;;;28.60;20.30;;;11.10;30.20;;;;;;4967036;28;20500;-62
2023/10/07 04:50:33;;;;;;;29.97;21.90;;;11.10;30.00;;;;;;4970165;28;20472;-62
2023/10/07 04:53:03;;;;;;;30.93;20.10;;;11.10;30.20;;;;;;4962875;28;20465;-62
2023/10/07 04:55:30;;;;;;;34.63;22.67;;;11.10;30.50;;;;;;4968233;28;21030;-62
2023/10/07 04:57:58;;;;;;;31.17;22.73;;;11.10;30.50;;;;;;4967146;28;20602;-62
2023/10/07 05:00:35;;;;;;;40.20;21.90;;;11.20;30.60;;;;;;4964987;28;20484;-62
2023/10/07 05:03:07;;;;;;;43.10;22.87;;;11.20;31.00;;;;;;4966705;28;20485;-62
2023/10/07 05:05:34;;;;;;;37.03;23.47;;;11.20;31.40;;;;;;4965881;28;20486;-62
2023/10/07 05:08:08;;;;;;;36.73;24.17;;;11.20;31.40;;;;;;4964295;28;20469;-62
2023/10/07 05:10:38;;;;;;;34.60;22.60;;;11.20;31.60;;;;;;4965388;28;20528;-62
2023/10/07 05:13:06;;;;;;;33.27;22.97;;;11.20;31.70;;;;;;4966013;28;20476;-62
2023/10/07 05:15:33;;;;;;;37.20;23.87;;;11.20;31.60;;;;;;4960182;28;20528;-62
2023/10/07 05:18:01;;;;;;;27.27;21.43;;;11.30;31.90;;;;;;4965665;28;20561;-62
2023/10/07 05:20:32;;;;;;;29.80;21.67;;;11.30;31.90;;;;;;4963904;28;20841;-62
2023/10/07 05:23:00;;;;;;;30.37;23.50;;;11.30;32.10;;;;;;4965083;28;20513;-62
2023/10/07 05:25:27;;;;;;;34.27;21.57;;;11.30;31.80;;;;;;4966299;28;20564;-63
2023/10/07 05:27:55;;;;;;;27.40;20.93;;;11.30;31.70;;;;;;4967617;28;21144;-62
2023/10/07 05:30:23;;;;;;;33.93;21.90;;;11.20;31.50;;;;;;4965693;28;20559;-62
2023/10/07 05:32:49;;;;;;;32.53;23.87;;;11.20;31.40;;;;;;4967094;28;20493;-65
2023/10/07 05:35:18;;;;;;;30.10;21.27;;;11.20;31.30;;;;;;4966463;28;20504;-62
2023/10/07 05:37:46;;;;;;;25.80;20.63;;;11.10;31.10;;;;;;4967385;28;20534;-62
2023/10/07 05:40:15;;;;;;;31.67;22.60;;;11.10;31.20;;;;;;4965950;28;20811;-62
2023/10/07 05:42:42;;;;;;;27.27;20.93;;;11.10;31.10;;;;;;4962163;28;20489;-62
2023/10/07 05:45:10;;;;;;;27.50;20.90;;;11.10;31.20;;;;;;4964181;28;20564;-62
2023/10/07 05:47:37;;;;;;;25.90;20.17;;;11.10;31.10;;;;;;4964837;28;20465;-62
2023/10/07 05:50:05;;;;;;;27.43;19.90;;;11.10;31.00;;;;;;4989327;23;20578;-65
2023/10/07 05:52:32;;;;;;;26.20;20.63;;;11.10;30.80;;;;;;4985254;28;20483;-65
2023/10/07 05:55:02;;;;;;;26.77;19.80;;;11.10;30.70;;;;;;4987756;28;20485;-64
2023/10/07 05:57:29;;;;;;;24.37;19.10;;;11.20;30.90;;;;;;4986814;28;21025;-64
2023/10/07 05:59:55;;;;;;;23.63;18.43;;;11.30;30.90;;;;;;4981600;28;20479;-64
2023/10/07 06:02:23;;;;;;;24.20;17.90;;;11.40;30.80;;;;;;4982833;28;20477;-64
2023/10/07 06:04:49;;;;;;;24.33;18.40;;;11.60;30.60;;;;;;4987973;28;20838;-64
2023/10/07 06:07:20;;;;;;;23.03;17.03;;;11.80;30.00;;;;;;4984690;28;20473;-65
2023/10/07 06:09:47;;;;;;;22.40;18.47;;;12.20;29.20;;;;;;4981103;28;21035;-66
2023/10/07 06:12:16;;;;;;;20.40;16.73;;;12.60;27.90;;;;;;4988945;28;20457;-66
2023/10/07 06:14:42;;;;;;;20.27;16.30;;;13.30;26.30;;;;;;4987937;28;20523;-66
2023/10/07 06:17:11;;;;;;;20.60;15.70;;;13.90;24.20;;;;;;4989472;28;20483;-66
2023/10/07 06:19:38;;;;;;;19.77;15.63;;;14.40;22.40;;;;;;4993368;28;20475;-63
2023/10/07 06:22:11;;;;;;;21.17;15.10;;;14.70;21.20;;;;;;4991065;28;20468;-65
2023/10/07 06:24:39;;;;;;;21.53;16.20;;;14.90;19.90;;;;;;4986561;28;20488;-65
2023/10/07 06:27:11;;;;;;;21.37;16.60;;;15.00;19.90;;;;;;4986658;28;20480;-65
2023/10/07 06:29:43;;;;;;;19.73;15.90;;;15.00;20.00;;;;;;4989221;28;20456;-65
2023/10/07 06:32:22;;;;;;;18.80;15.20;;;15.10;19.30;;;;;;4983129;28;20496;-65
2023/10/07 06:34:51;;;;;;;17.77;14.93;;;15.20;19.60;;;;;;4992495;28;20489;-65
2023/10/07 06:37:21;;;;;;;17.97;15.20;;;15.50;19.20;;;;;;4990144;28;20457;-65
2023/10/07 06:39:48;;;;;;;17.90;13.73;;;15.70;19.20;;;;;;4992176;28;20550;-65
2023/10/07 06:42:21;;;;;;;18.07;14.20;;;16.10;19.30;;;;;;4990211;28;20488;-65
2023/10/07 06:44:49;;;;;;;16.30;13.73;;;16.50;18.80;;;;;;4990543;28;23142;-65
2023/10/07 06:47:17;;;;;;;16.13;12.80;;;16.80;18.10;;;;;;4990982;28;20468;-65
2023/10/07 06:49:44;;;;;;;15.17;12.93;;;17.10;17.50;;;;;;4993800;28;20479;-64
2023/10/07 06:52:12;;;;;;;17.30;13.03;;;17.30;16.30;;;;;;4990178;28;20977;-64
2023/10/07 06:54:39;;;;;;;15.97;13.57;;;17.60;15.20;;;;;;4989803;28;20531;-65
2023/10/07 06:57:10;;;;;;;14.60;12.63;;;18.00;13.60;;;;;;4991569;28;20558;-66
2023/10/07 06:59:40;;;;;;;15.67;12.67;;;18.30;12.00;;;;;;4988886;28;20500;-64
2023/10/07 07:02:10;;;;;;;13.83;12.20;;;18.80;10.60;;;;;;4987193;28;20487;-65
2023/10/07 07:04:38;;;;;;;14.67;12.20;;;19.50;9.30;;;;;;4990234;28;20537;-66
2023/10/07 07:07:16;;;;;;;16.60;13.70;;;19.80;8.30;;;;;;4990366;28;20480;-65
2023/10/07 07:09:50;;;;;;;13.30;11.90;;;20.00;7.70;;;;;;4989601;28;20539;-65
2023/10/07 07:12:21;;;;;;;13.33;11.93;;;20.30;7.00;;;;;;4987235;28;20481;-65
2023/10/07 07:14:51;;;;;;;13.03;11.23;;;20.80;5.90;;;;;;4987770;28;20484;-65
2023/10/07 07:17:30;;;;;;;13.97;11.73;;;21.50;4.50;;;;;;4993308;28;20498;-65
2023/10/07 07:22:42;;;;;;;13.90;11.63;;;23.80;1.00;;;;;;4985583;28;20850;-65
2023/10/07 07:25:12;;;;;;;16.40;11.47;;;23.50;1.00;;;;;;4990332;28;21195;-65
2023/10/07 07:27:45;;;;;;;15.63;12.00;;;22.90;1.00;;;;;;4990483;28;20519;-64
2023/10/07 07:30:19;;;;;;;13.70;11.80;;;22.50;1.00;;;;;;4988792;28;20484;-64
2023/10/07 07:32:55;;;;;;;12.90;11.50;;;22.40;1.00;;;;;;4987131;28;20464;-64
2023/10/07 07:35:22;;;;;;;13.17;11.50;;;23.60;1.00;;;;;;4989320;28;20491;-64
2023/10/07 07:37:49;;;;;;;13.60;11.40;;;25.30;1.00;;;;;;4990369;28;20472;-65
2023/10/07 07:40:35;;;;;;;13.50;11.37;;;26.50;1.00;;;;;;4989765;28;20468;-65
2023/10/07 07:43:07;;;;;;;14.40;11.40;;;26.20;1.00;;;;;;4983346;28;20489;-65
2023/10/07 07:45:35;;;;;;;15.50;10.93;;;27.20;1.00;;;;;;4980415;28;20492;-65
2023/10/07 07:48:06;;;;;;;14.07;11.03;;;26.90;1.00;;;;;;4986592;28;20515;-65
2023/10/07 07:50:35;;;;;;;13.03;11.57;;;26.00;1.00;;;;;;4987167;28;20469;-64
2023/10/07 07:53:06;;;;;;;13.30;11.90;;;25.20;1.00;;;;;;4985441;28;20469;-64
2023/10/07 07:55:34;;;;;;;14.93;11.60;;;24.40;1.00;;;;;;4987822;28;20491;-64
2023/10/07 07:58:02;;;;;;;15.47;12.83;;;23.80;1.00;;;;;;4990036;28;20817;-64
2023/10/07 08:00:31;;;;;;;15.40;12.27;;;23.40;1.00;;;;;;4985850;28;20531;-64
2023/10/07 08:02:58;;;;;;;15.03;11.93;;;23.00;1.00;;;;;;4990576;28;20977;-64
2023/10/07 08:05:33;;;;;;;14.83;12.03;;;22.80;1.00;;;;;;4986150;28;20485;-64
2023/10/07 08:08:09;;;;;;;15.23;12.37;;;22.50;1.00;;;;;;4984906;28;20972;-64
2023/10/07 08:10:36;;;;;;;17.93;12.13;;;22.30;1.00;;;;;;4986435;28;20660;-64
2023/10/07 08:13:06;;;;;;;17.13;12.80;;;21.80;1.00;;;;;;4988516;28;20882;-65
2023/10/07 08:15:41;;;;;;;17.00;12.43;;;21.40;1.60;;;;;;4986106;28;20512;-65
2023/10/07 08:18:09;;;;;;;15.67;11.70;;;22.80;2.20;;;;;;4986598;28;20554;-65
2023/10/07 08:20:41;;;;;;;13.03;10.67;;;26.00;1.00;;;;;;4986573;28;20522;-64
2023/10/07 08:23:17;;;;;;;14.23;11.80;;;28.80;1.00;;;;;;4985471;28;21290;-64
2023/10/07 08:25:46;;;;;;;15.63;11.57;;;30.20;1.00;;;;;;4987687;28;20748;-65
2023/10/07 08:28:19;;;;;;;14.10;11.53;;;31.90;1.00;;;;;;4985298;28;20464;-65
2023/10/07 08:30:47;;;;;;;15.03;11.40;;;33.70;1.00;;;;;;4989449;28;20849;-65
2023/10/07 08:33:15;;;;;;;13.00;10.83;;;35.70;1.00;;;;;;4989302;28;20887;-65
2023/10/07 08:35:44;;;;;;;14.53;12.40;;;37.10;1.00;;;;;;4987954;28;20489;-65
2023/10/07 08:38:22;;;;;;;14.07;11.50;;;38.20;1.00;;;;;;4987868;28;20456;-65
2023/10/07 08:41:04;;;;;;;12.87;11.50;;;39.30;1.00;;;;;;4986697;28;20526;-66
2023/10/07 08:43:37;;;;;;;11.90;10.30;;;40.20;1.00;;;;;;4986107;28;20473;-66
2023/10/07 08:46:07;;;;;;;12.00;10.70;;;40.30;1.00;;;;;;4985520;28;20464;-65
2023/10/07 08:48:38;;;;;;;12.87;10.10;;;40.50;1.00;;;;;;4988765;28;20974;-66
2023/10/07 08:51:14;;;;;;;12.20;10.40;;;41.00;1.00;;;;;;4985434;28;20538;-66
2023/10/07 08:53:41;;;;;;;13.80;10.03;;;41.70;1.00;;;;;;4984208;28;20468;-66
2023/10/07 08:56:09;;;;;;;12.40;9.63;;;42.30;1.00;;;;;;4985346;28;20468;-66
2023/10/07 08:58:39;;;;;;;11.17;10.03;;;42.90;1.00;;;;;;4987078;28;20465;-66
2023/10/07 09:01:07;;;;;;;10.57;9.30;;;43.40;1.00;;;;;;4984314;28;20564;-66
2023/10/07 09:03:39;;;;;;;15.73;9.97;;;44.20;1.00;;;;;;4982834;28;21040;-65
2023/10/07 09:06:11;;;;;;;12.90;10.50;;;43.10;1.00;;;;;;4983907;28;20469;-65
2023/10/07 09:08:38;;;;;;;12.60;10.30;;;41.30;1.00;;;;;;4986920;28;20471;-65
2023/10/07 09:11:07;;;;;;;13.13;8.63;;;40.00;1.00;;;;;;4987403;28;20460;-65
2023/10/07 09:13:34;;;;;;;11.50;9.27;;;40.70;1.00;;;;;;4987070;28;20461;-65
2023/10/07 09:16:07;;;;;;;12.10;9.90;;;42.10;1.00;;;;;;4989124;28;20457;-65
2023/10/07 09:18:39;;;;;;;12.40;9.90;;;43.10;1.00;;;;;;4985178;28;20473;-65
2023/10/07 09:21:18;;;;;;;11.63;9.43;;;44.20;1.00;;;;;;4987667;28;20503;-66
2023/10/07 09:23:49;;;;;;;11.20;9.90;;;44.10;1.00;;;;;;4983106;28;20528;-65
2023/10/07 09:26:23;;;;;;;12.03;9.00;;;43.90;1.00;;;;;;4984951;28;20465;-66
2023/10/07 09:28:58;;;;;;;9.83;8.83;;;42.30;1.00;;;;;;4982132;28;20910;-65
2023/10/07 09:31:26;;;;;;;14.03;9.30;;;40.20;1.00;;;;;;4987925;28;20836;-66
2023/10/07 09:33:55;;;;;;;14.83;9.90;;;38.70;1.00;;;;;;4986405;28;20505;-65
2023/10/07 09:36:33;;;;;;;14.00;9.40;;;37.90;1.00;;;;;;4988071;28;21000;-66
2023/10/07 09:39:34;;;;;;;11.57;8.63;;;38.60;1.00;;;;;;4986372;28;20973;-65
2023/10/07 09:42:04;;;;;;;12.73;8.20;;;39.50;1.00;;;;;;4986914;28;20519;-65
2023/10/07 09:44:32;;;;;;;8.30;7.40;;;40.80;1.00;;;;;;4986209;28;20493;-65
2023/10/07 09:47:03;;;;;;;11.80;9.37;;;40.60;1.00;;;;;;4985160;28;20583;-66
2023/10/07 09:49:32;;;;;;;10.37;7.57;;;39.70;1.00;;;;;;4979090;28;20759;-65
2023/10/07 09:52:17;;;;;;;10.07;7.63;;;38.40;1.00;;;;;;4986025;28;21032;-65
2023/10/07 09:54:55;;;;;;;11.93;7.63;;;37.20;1.00;;;;;;4986037;28;20572;-65
2023/10/07 09:57:32;;;;;;;11.90;6.57;;;38.50;1.00;;;;;;4982368;28;20499;-65
2023/10/07 10:00:40;;;;;;;10.57;6.03;;;40.30;1.00;;;;;;4983885;28;20964;-66
2023/10/07 10:03:33;;;;;;;11.30;6.40;;;41.00;1.00;;;;;;4984839;28;20503;-64
2023/10/07 10:06:25;;;;;;;13.40;6.47;;;39.40;1.00;;;;;;4977206;28;20915;-65
2023/10/07 10:08:59;;;;;;;8.60;4.90;;;38.20;1.00;;;;;;4981289;28;20461;-64
2023/10/07 10:11:44;;;;;;;9.80;5.47;;;37.10;1.00;;;;;;4985620;28;20463;-65
2023/10/07 10:14:16;;;;;;;11.20;5.53;;;35.80;1.00;;;;;;4987051;28;20542;-64
2023/10/07 10:16:46;;;;;;;8.80;5.53;;;34.90;1.00;;;;;;4983792;28;20473;-65
2023/10/07 10:19:18;;;;;;;8.03;5.33;;;34.00;1.00;;;;;;4983724;28;20462;-64
2023/10/07 10:21:45;;;;;;;8.60;4.97;;;33.60;1.00;;;;;;4984199;28;20472;-65
2023/10/07 10:24:16;;;;;;;10.57;5.03;;;33.20;1.00;;;;;;4984883;28;20492;-64
2023/10/07 10:26:44;;;;;;;8.67;4.73;;;32.70;1.00;;;;;;4984586;28;20467;-64
2023/10/07 10:29:16;;;;;;;8.90;4.80;;;32.30;1.00;;;;;;4983708;28;20463;-64
2023/10/07 10:31:50;;;;;;;7.83;5.17;;;31.80;1.00;;;;;;4983471;28;20492;-64
2023/10/07 10:34:20;;;;;;;8.10;5.07;;;31.50;1.00;;;;;;4986510;28;20484;-65
2023/10/07 10:36:49;;;;;;;8.97;4.53;;;31.10;1.00;;;;;;4983196;28;20460;-65
2023/10/07 10:39:22;;;;;;;7.20;3.97;;;30.70;1.00;;;;;;4986461;28;22515;-65
2023/10/07 10:41:49;;;;;;;6.70;4.10;;;30.40;1.00;;;;;;4989964;28;20473;-65
2023/10/07 10:44:17;;;;;;;6.53;3.87;;;30.20;1.00;;;;;;4983551;28;20496;-64
2023/10/07 10:46:46;;;;;;;7.70;4.63;;;30.00;1.00;;;;;;4982034;28;20461;-64
2023/10/07 10:49:15;;;;;;;9.33;3.87;;;29.60;1.00;;;;;;4985139;28;20548;-66
2023/10/07 10:51:45;;;;;;;7.10;4.30;;;29.50;1.00;;;;;;4983347;28;20468;-65
2023/10/07 10:54:18;;;;;;;9.17;4.53;;;29.20;1.00;;;;;;4985137;28;20484;-65
2023/10/07 10:56:55;;;;;;;7.37;4.03;;;28.80;1.00;;;;;;4984945;28;20461;-65
2023/10/07 10:59:23;;;;;;;10.30;4.50;;;28.60;1.00;;;;;;4988750;28;20476;-65
2023/10/07 11:01:51;;;;;;;7.40;3.87;;;28.40;1.00;;;;;;4986726;28;20487;-65
2023/10/07 11:04:21;;;;;;;8.20;3.33;;;28.20;1.00;;;;;;4997150;23;20636;-62
2023/10/07 11:06:51;;;;;;;5.90;3.20;;;28.00;1.00;;;;;;4988103;28;20464;-62
2023/10/07 11:09:25;;;;;;;8.97;4.43;;;27.80;1.00;;;;;;4991311;28;20467;-63
2023/10/07 11:11:54;;;;;;;10.20;4.00;;;27.60;1.00;;;;;;4989174;28;20452;-63
2023/10/07 11:14:22;;;;;;;9.10;3.90;;;27.60;1.00;;;;;;4990220;28;20484;-63
2023/10/07 11:16:50;;;;;;;7.00;4.00;;;27.50;1.00;;;;;;4990593;28;20456;-63
2023/10/07 11:19:18;;;;;;;7.13;3.87;;;27.40;1.00;;;;;;4988417;28;20495;-63
2023/10/07 11:21:48;;;;;;;8.60;3.73;;;27.30;1.00;;;;;;4990131;28;20460;-63
2023/10/07 11:24:25;;;;;;;7.97;3.50;;;27.30;1.00;;;;;;4990192;28;20491;-63
2023/10/07 11:26:56;;;;;;;8.07;3.53;;;27.30;1.00;;;;;;4987600;28;20816;-63
2023/10/07 11:29:27;;;;;;;16.70;3.77;;;27.10;1.00;;;;;;4984410;28;20472;-63
2023/10/07 11:31:59;;;;;;;7.23;2.57;;;26.90;1.00;;;;;;4990146;28;20473;-63
2023/10/07 11:34:32;;;;;;;8.03;2.97;;;27.00;1.00;;;;;;4988610;28;20488;-66
2023/10/07 11:37:08;;;;;;;8.47;2.60;;;27.60;1.00;;;;;;4988851;28;20465;-62
2023/10/07 11:39:43;;;;;;;5.80;3.23;;;28.20;1.00;;;;;;4991324;28;20468;-62
2023/10/07 11:42:11;;;;;;;8.80;3.50;;;28.60;1.00;;;;;;4987037;28;20467;-62
2023/10/07 11:44:38;;;;;;;8.10;3.50;;;28.60;1.00;;;;;;4990610;28;20512;-62
2023/10/07 11:47:06;;;;;;;5.90;2.77;;;28.40;1.00;;;;;;4990956;28;20467;-62
2023/10/07 11:49:34;;;;;;;7.10;2.60;;;28.20;1.00;;;;;;4989868;28;20504;-62
2023/10/07 11:52:03;;;;;;;7.33;3.80;;;27.90;1.00;;;;;;4988616;28;20485;-62
2023/10/07 11:54:31;;;;;;;7.00;3.23;;;27.60;1.00;;;;;;4988252;28;20524;-62
2023/10/07 11:56:59;;;;;;;8.60;3.63;;;27.30;1.00;;;;;;4990279;28;21622;-62
2023/10/07 11:59:27;;;;;;;9.60;4.07;;;27.10;1.00;;;;;;4991457;28;20452;-62
2023/10/07 12:01:54;;;;;;;6.83;3.10;;;26.90;1.00;;;;;;4990012;28;20472;-62
2023/10/07 12:04:21;;;;;;;5.33;2.50;;;26.70;1.00;;;;;;4991022;28;20497;-62
2023/10/07 12:06:50;;;;;;;6.33;2.67;;;26.50;1.00;;;;;;4988762;28;20465;-62
2023/10/07 12:09:20;;;;;;;9.17;3.30;;;26.40;1.00;;;;;;4988141;28;20554;-62
2023/10/07 12:11:49;;;;;;;7.60;3.37;;;26.20;1.00;;;;;;4990483;28;20556;-62
2023/10/07 12:14:19;;;;;;;8.00;3.10;;;26.10;1.00;;;;;;4990185;28;20488;-62
2023/10/07 12:16:46;;;;;;;7.80;2.90;;;25.90;1.00;;;;;;4987159;28;20460;-62
2023/10/07 12:19:17;;;;;;;11.33;3.27;;;25.80;1.00;;;;;;4987004;28;20472;-62
2023/10/07 12:21:48;;;;;;;6.30;3.37;;;25.60;1.00;;;;;;4989471;28;20472;-62
2023/10/07 12:24:16;;;;;;;7.40;2.83;;;25.50;1.00;;;;;;4989140;28;20939;-62
2023/10/07 12:26:45;;;;;;;7.80;3.27;;;25.40;1.00;;;;;;4985899;28;20453;-62
2023/10/07 12:29:11;;;;;;;6.90;3.20;;;25.40;1.00;;;;;;4988928;28;20461;-62
2023/10/07 12:31:42;;;;;;;7.20;3.50;;;25.40;1.00;;;;;;4989511;28;20499;-62
2023/10/07 12:34:10;;;;;;;6.57;3.33;;;25.30;1.00;;;;;;4986037;28;20566;-62
2023/10/07 12:36:38;;;;;;;7.17;3.10;;;25.20;1.00;;;;;;4989469;28;20476;-62
2023/10/07 12:39:10;;;;;;;5.67;2.97;;;25.10;1.00;;;;;;4987745;28;20461;-62
2023/10/07 12:41:37;;;;;;;7.73;3.50;;;25.00;1.00;;;;;;4986504;28;21066;-64
2023/10/07 12:44:04;;;;;;;8.47;3.40;;;24.90;1.00;;;;;;4986870;28;20973;-62
2023/10/07 12:46:31;;;;;;;6.93;3.73;;;24.80;1.00;;;;;;4989881;28;20468;-62
2023/10/07 12:48:59;;;;;;;9.60;4.10;;;24.60;1.00;;;;;;4986542;28;20480;-62
2023/10/07 12:51:25;;;;;;;7.07;3.10;;;24.60;1.00;;;;;;4986746;28;20969;-62
2023/10/07 12:53:56;;;;;;;7.37;2.70;;;24.50;1.00;;;;;;4989853;28;20488;-62
2023/10/07 12:56:25;;;;;;;6.93;2.90;;;24.50;1.00;;;;;;4984347;28;20476;-62
2023/10/07 12:58:53;;;;;;;8.30;3.40;;;24.50;1.00;;;;;;4985649;28;20497;-62